createdAt,value
2018-05-18T00:02:28.114Z,13.16
2018-05-18T00:04:56.237Z,12.98
2018-05-18T00:07:24.367Z,13.27
2018-05-18T00:09:52.514Z,13.29
2018-05-18T00:12:20.655Z,13.21
2018-05-18T00:14:48.761Z,13.14
2018-05-18T00:17:16.893Z,13.01
2018-05-18T00:19:45.031Z,13.09
2018-05-18T00:22:13.176Z,13.23
2018-05-18T00:24:41.323Z,12.88
2018-05-18T00:27:09.494Z,12.98
2018-05-18T00:29:37.628Z,13.08
2018-05-18T00:32:05.776Z,13.21
2018-05-18T00:34:33.887Z,13.18
2018-05-18T00:37:02.049Z,13.18
2018-05-18T00:39:30.200Z,13.21
2018-05-18T00:41:58.309Z,13.25
2018-05-18T00:44:26.439Z,13.17
2018-05-18T00:46:54.861Z,13.10
2018-05-18T00:49:22.992Z,13.07
2018-05-18T00:51:51.106Z,13.20
2018-05-18T00:54:19.252Z,13.30
2018-05-18T00:56:47.373Z,13.29
2018-05-18T00:59:15.696Z,13.25
2018-05-18T01:01:43.829Z,13.03
2018-05-18T01:04:11.957Z,12.98
2018-05-18T01:06:40.081Z,12.99
2018-05-18T01:09:08.436Z,12.86
2018-05-18T01:11:36.554Z,12.76
2018-05-18T01:14:04.696Z,12.81
2018-05-18T01:16:32.833Z,12.90
2018-05-18T01:19:00.957Z,13.07
2018-05-18T01:21:29.096Z,13.10
2018-05-18T01:23:57.257Z,13.01
2018-05-18T01:26:25.381Z,12.96
2018-05-18T01:28:53.525Z,12.92
2018-05-18T01:31:21.687Z,12.97
2018-05-18T01:33:49.799Z,12.97
2018-05-18T01:36:18.511Z,12.96
2018-05-18T01:38:46.638Z,13.13
2018-05-18T01:41:14.751Z,12.95
2018-05-18T01:43:42.922Z,12.85
2018-05-18T01:46:11.241Z,12.71
2018-05-18T01:48:39.347Z,12.68
2018-05-18T01:51:07.468Z,12.63
2018-05-18T01:53:35.621Z,12.75
2018-05-18T01:56:03.716Z,12.91
2018-05-18T01:58:31.852Z,13.00
2018-05-18T02:00:59.966Z,12.92
2018-05-18T02:03:28.095Z,12.86
2018-05-18T02:05:56.211Z,12.51
2018-05-18T02:08:24.349Z,12.66
2018-05-18T02:10:52.467Z,12.77
2018-05-18T02:13:20.584Z,12.65
2018-05-18T02:15:48.748Z,12.55
2018-05-18T02:18:16.875Z,12.68
2018-05-18T02:20:44.996Z,12.42
2018-05-18T02:23:13.323Z,12.56
2018-05-18T02:25:41.435Z,12.54
2018-05-18T02:28:09.561Z,12.60
2018-05-18T02:30:37.723Z,12.50
2018-05-18T02:33:05.841Z,12.38
2018-05-18T02:35:33.980Z,12.45
2018-05-18T02:38:02.261Z,12.46
2018-05-18T02:40:30.406Z,12.47
2018-05-18T02:42:58.535Z,12.63
2018-05-18T02:45:26.799Z,12.50
2018-05-18T02:47:54.952Z,12.51
2018-05-18T02:50:23.080Z,12.56
2018-05-18T02:52:51.201Z,12.63
2018-05-18T02:55:19.380Z,12.69
2018-05-18T02:57:47.506Z,12.52
2018-05-18T03:00:15.635Z,12.49
2018-05-18T03:02:44.187Z,12.66
2018-05-18T03:05:12.423Z,12.50
2018-05-18T03:07:41.101Z,12.60
2018-05-18T03:10:09.249Z,12.54
2018-05-18T03:12:37.376Z,12.34
2018-05-18T03:15:05.522Z,12.46
2018-05-18T03:17:33.640Z,12.63
2018-05-18T03:20:01.771Z,12.70
2018-05-18T03:22:29.911Z,12.49
2018-05-18T03:24:58.033Z,12.60
2018-05-18T03:27:26.147Z,12.59
2018-05-18T03:29:54.297Z,12.55
2018-05-18T03:32:22.411Z,12.55
2018-05-18T03:34:50.545Z,12.70
2018-05-18T03:37:18.877Z,12.58
2018-05-18T03:39:47.068Z,12.55
2018-05-18T03:42:15.241Z,12.51
2018-05-18T03:44:43.365Z,12.31
2018-05-18T03:47:11.576Z,12.47
2018-05-18T03:49:39.701Z,12.47
2018-05-18T03:52:07.832Z,12.14
2018-05-18T03:54:35.954Z,12.27
2018-05-18T03:57:04.083Z,12.28
2018-05-18T03:59:32.213Z,12.23
2018-05-18T04:02:12.364Z,12.24
2018-05-18T04:08:11.069Z,12.09
2018-05-18T04:10:39.188Z,12.08
2018-05-18T04:13:07.343Z,12.13
2018-05-18T04:15:35.443Z,12.09
2018-05-18T04:18:03.582Z,12.17
2018-05-18T04:20:31.691Z,12.27
2018-05-18T04:22:59.867Z,12.19
2018-05-18T04:25:27.942Z,12.13
2018-05-18T04:27:56.055Z,11.82
2018-05-18T04:30:24.231Z,12.00
2018-05-18T04:32:52.305Z,11.97
2018-05-18T04:35:20.429Z,11.97
2018-05-18T04:37:48.558Z,12.05
2018-05-18T04:40:16.694Z,12.01
2018-05-18T04:42:44.829Z,11.97
2018-05-18T04:45:12.949Z,11.84
2018-05-18T04:47:41.074Z,11.92
2018-05-18T04:50:09.218Z,12.04
2018-05-18T04:52:37.344Z,11.99
2018-05-18T04:55:05.472Z,12.01
2018-05-18T04:57:33.616Z,12.06
2018-05-18T05:00:01.727Z,12.17
2018-05-18T05:02:29.861Z,11.88
2018-05-18T05:04:57.981Z,11.75
2018-05-18T05:07:26.119Z,11.88
2018-05-18T05:09:54.276Z,11.96
2018-05-18T05:12:22.400Z,11.87
2018-05-18T05:14:50.512Z,11.97
2018-05-18T05:17:18.833Z,11.99
2018-05-18T05:19:46.959Z,12.06
2018-05-18T05:22:15.083Z,12.06
2018-05-18T05:24:43.208Z,11.99
2018-05-18T05:27:11.334Z,12.13
2018-05-18T05:29:39.446Z,11.91
2018-05-18T05:32:07.615Z,11.97
2018-05-18T05:34:35.741Z,12.19
2018-05-18T05:37:04.030Z,12.14
2018-05-18T05:39:32.169Z,12.31
2018-05-18T05:42:00.285Z,12.23
2018-05-18T05:44:28.399Z,12.31
2018-05-18T05:46:56.927Z,12.38
2018-05-18T05:49:25.011Z,12.21
2018-05-18T05:51:53.133Z,11.92
2018-05-18T05:54:21.269Z,12.04
2018-05-18T05:56:49.397Z,12.24
2018-05-18T05:59:17.539Z,12.41
2018-05-18T06:01:45.659Z,12.36
2018-05-18T06:04:13.778Z,12.10
2018-05-18T06:06:41.901Z,12.12
2018-05-18T06:09:10.064Z,11.85
2018-05-18T06:11:38.199Z,11.84
2018-05-18T06:14:06.321Z,12.08
2018-05-18T06:16:35.167Z,12.25
2018-05-18T06:19:03.315Z,12.26
2018-05-18T06:21:31.453Z,12.38
2018-05-18T06:23:59.593Z,12.38
2018-05-18T06:26:27.720Z,12.32
2018-05-18T06:28:55.908Z,12.42
2018-05-18T06:31:24.064Z,12.15
2018-05-18T06:33:52.203Z,12.41
2018-05-18T06:36:20.325Z,12.41
2018-05-18T06:38:48.480Z,12.46
2018-05-18T06:41:16.629Z,12.75
2018-05-18T06:43:44.748Z,12.87
2018-05-18T06:46:12.877Z,12.55
2018-05-18T06:48:41.020Z,12.64
2018-05-18T06:51:09.137Z,12.91
2018-05-18T06:53:37.255Z,13.30
2018-05-18T06:56:05.367Z,13.21
2018-05-18T06:58:37.237Z,13.48
2018-05-18T07:01:05.315Z,13.54
2018-05-18T07:03:33.440Z,13.16
2018-05-18T07:06:01.573Z,13.20
2018-05-18T07:08:29.822Z,13.21
2018-05-18T07:10:57.940Z,13.03
2018-05-18T07:13:26.058Z,12.99
2018-05-18T07:15:54.205Z,13.01
2018-05-18T07:18:22.330Z,12.86
2018-05-18T07:20:50.458Z,12.70
2018-05-18T07:23:18.624Z,12.79
2018-05-18T07:25:46.771Z,12.79
2018-05-18T07:28:14.888Z,12.76
2018-05-18T07:30:43.209Z,12.77
2018-05-18T07:33:11.323Z,12.74
2018-05-18T07:35:39.440Z,12.74
2018-05-18T07:38:07.582Z,13.07
2018-05-18T07:40:35.698Z,13.05
2018-05-18T07:43:03.962Z,13.06
2018-05-18T07:45:32.272Z,13.21
2018-05-18T07:48:00.426Z,13.08
2018-05-18T07:50:28.549Z,13.29
2018-05-18T07:52:56.688Z,13.48
2018-05-18T07:55:24.827Z,13.55
2018-05-18T07:57:52.963Z,13.58
2018-05-18T08:00:21.110Z,13.51
2018-05-18T08:02:49.215Z,13.44
2018-05-18T08:05:17.359Z,13.38
2018-05-18T08:07:45.536Z,13.51
2018-05-18T08:10:13.628Z,13.61
2018-05-18T08:12:41.765Z,13.74
2018-05-18T08:15:09.976Z,13.48
2018-05-18T08:17:38.030Z,13.44
2018-05-18T08:20:06.166Z,13.56
2018-05-18T08:22:34.289Z,13.79
2018-05-18T08:25:02.407Z,13.79
2018-05-18T08:27:30.535Z,13.82
2018-05-18T08:29:58.883Z,13.62
2018-05-18T08:32:26.996Z,13.58
2018-05-18T08:34:55.165Z,13.85
2018-05-18T08:37:23.434Z,13.87
2018-05-18T08:39:51.565Z,13.84
2018-05-18T08:42:19.708Z,13.66
2018-05-18T08:44:47.848Z,13.71
2018-05-18T08:47:15.974Z,13.87
2018-05-18T08:49:44.103Z,13.84
2018-05-18T08:52:13.037Z,13.53
2018-05-18T08:54:41.165Z,13.86
2018-05-18T08:57:09.300Z,13.84
2018-05-18T08:59:37.456Z,13.93
2018-05-18T09:02:05.573Z,14.02
2018-05-18T09:04:33.684Z,13.81
2018-05-18T09:07:01.829Z,13.82
2018-05-18T09:09:29.938Z,14.01
2018-05-18T09:11:58.073Z,13.74
2018-05-18T09:14:26.391Z,14.03
2018-05-18T09:16:54.529Z,13.87
2018-05-18T09:19:22.663Z,13.92
2018-05-18T09:21:50.789Z,13.91
2018-05-18T09:24:18.914Z,14.20
2018-05-18T09:26:47.044Z,14.35
2018-05-18T09:29:15.155Z,14.16
2018-05-18T09:31:43.300Z,13.96
2018-05-18T09:34:11.508Z,14.21
2018-05-18T09:36:39.770Z,14.29
2018-05-18T09:39:07.886Z,14.51
2018-05-18T09:41:36.003Z,14.30
2018-05-18T09:44:04.141Z,14.44
2018-05-18T09:46:32.261Z,14.65
2018-05-18T09:49:00.389Z,14.73
2018-05-18T09:51:28.529Z,14.69
2018-05-18T09:53:56.646Z,14.70
2018-05-18T09:56:24.788Z,14.66
2018-05-18T09:58:52.936Z,14.56
2018-05-18T10:01:21.064Z,14.64
2018-05-18T10:03:49.170Z,14.77
2018-05-18T10:06:17.309Z,14.94
2018-05-18T10:08:45.439Z,15.03
2018-05-18T10:11:13.572Z,15.05
2018-05-18T10:13:41.714Z,15.09
2018-05-18T10:16:09.819Z,15.12
2018-05-18T10:18:37.946Z,14.85
2018-05-18T10:21:06.088Z,14.99
2018-05-18T10:23:34.213Z,15.16
2018-05-18T10:26:02.319Z,15.06
2018-05-18T10:28:30.451Z,15.11
2018-05-18T10:30:58.591Z,14.98
2018-05-18T10:33:26.714Z,15.09
2018-05-18T10:35:54.853Z,15.14
2018-05-18T10:38:22.979Z,15.13
2018-05-18T10:40:51.109Z,15.20
2018-05-18T10:43:19.234Z,15.35
2018-05-18T10:45:47.355Z,15.53
2018-05-18T10:48:15.468Z,15.51
2018-05-18T10:50:46.549Z,15.62
2018-05-18T10:53:14.699Z,15.48
2018-05-18T10:55:42.804Z,15.61
2018-05-18T10:58:11.253Z,15.58
2018-05-18T11:00:39.373Z,15.52
2018-05-18T11:03:07.504Z,15.56
2018-05-18T11:05:35.622Z,15.73
2018-05-18T11:08:03.760Z,15.86
2018-05-18T11:10:31.881Z,15.85
2018-05-18T11:13:00.029Z,15.88
2018-05-18T11:15:28.170Z,15.75
2018-05-18T11:17:56.304Z,15.83
2018-05-18T11:20:24.420Z,15.82
2018-05-18T11:22:52.546Z,15.73
2018-05-18T11:25:20.661Z,15.85
2018-05-18T11:27:48.800Z,16.01
2018-05-18T11:30:16.918Z,16.03
2018-05-18T11:32:45.045Z,16.23
2018-05-18T11:35:13.162Z,16.40
2018-05-18T11:37:41.335Z,16.26
2018-05-18T11:40:09.468Z,16.24
2018-05-18T11:42:37.612Z,16.54
2018-05-18T11:45:05.738Z,16.39
2018-05-18T11:47:33.887Z,16.16
2018-05-18T11:50:02.005Z,16.05
2018-05-18T11:52:30.142Z,16.28
2018-05-18T11:54:58.312Z,16.39
2018-05-18T11:57:26.489Z,16.47
2018-05-18T11:59:54.609Z,16.60
2018-05-18T12:02:22.727Z,16.50
2018-05-18T12:04:50.853Z,16.45
2018-05-18T12:07:18.985Z,16.50
2018-05-18T12:09:47.107Z,16.51
2018-05-18T12:12:15.238Z,16.69
2018-05-18T12:14:43.365Z,16.62
2018-05-18T12:17:11.492Z,16.59
2018-05-18T12:19:39.625Z,16.66
2018-05-18T12:22:07.749Z,16.83
2018-05-18T12:24:35.858Z,16.86
2018-05-18T12:27:04.009Z,16.73
2018-05-18T12:29:32.219Z,16.79
2018-05-18T12:32:00.360Z,16.98
2018-05-18T12:34:28.521Z,16.70
2018-05-18T12:36:56.619Z,16.83
2018-05-18T12:39:24.762Z,16.86
2018-05-18T12:41:52.875Z,16.62
2018-05-18T12:44:21.014Z,16.72
2018-05-18T12:46:49.145Z,17.01
2018-05-18T12:49:17.307Z,17.21
2018-05-18T12:51:45.474Z,17.12
2018-05-18T12:54:13.597Z,17.37
2018-05-18T12:56:41.752Z,17.55
2018-05-18T12:59:09.880Z,17.49
2018-05-18T13:01:38.005Z,17.48
2018-05-18T13:04:06.169Z,17.35
2018-05-18T13:06:34.299Z,17.04
2018-05-18T13:09:02.422Z,17.18
2018-05-18T13:11:30.534Z,17.66
2018-05-18T13:13:58.665Z,17.64
2018-05-18T13:16:26.785Z,17.87
2018-05-18T13:18:54.906Z,17.70
2018-05-18T13:21:23.033Z,17.59
2018-05-18T13:23:51.161Z,17.39
2018-05-18T13:26:19.320Z,17.41
2018-05-18T13:28:47.460Z,17.72
2018-05-18T13:31:15.574Z,17.76
2018-05-18T13:33:43.700Z,17.89
2018-05-18T13:36:11.835Z,17.89
2018-05-18T13:38:39.988Z,17.73
2018-05-18T13:41:08.111Z,17.51
2018-05-18T13:43:36.237Z,17.80
2018-05-18T13:46:04.365Z,18.06
2018-05-18T13:48:32.697Z,17.92
2018-05-18T13:51:00.831Z,18.09
2018-05-18T13:53:28.971Z,17.75
2018-05-18T13:55:57.304Z,17.74
2018-05-18T13:58:25.446Z,17.70
2018-05-18T14:00:53.591Z,17.91
2018-05-18T14:03:21.796Z,18.03
2018-05-18T14:05:49.895Z,17.84
2018-05-18T14:08:18.045Z,17.94
2018-05-18T14:10:46.196Z,17.72
2018-05-18T14:13:14.390Z,17.65
2018-05-18T14:15:42.573Z,17.91
2018-05-18T14:18:10.691Z,17.90
2018-05-18T14:20:38.815Z,17.95
2018-05-18T14:23:06.941Z,17.95
2018-05-18T14:25:35.096Z,17.99
2018-05-18T14:28:03.217Z,17.85
2018-05-18T14:30:31.341Z,18.01
2018-05-18T14:32:59.512Z,18.08
2018-05-18T14:35:27.638Z,18.13
2018-05-18T14:37:55.863Z,17.98
2018-05-18T14:40:24.031Z,17.80
2018-05-18T14:42:52.153Z,17.85
2018-05-18T14:45:20.273Z,18.07
2018-05-18T14:47:48.410Z,18.17
2018-05-18T14:50:16.551Z,18.15
2018-05-18T14:52:44.671Z,18.12
2018-05-18T14:55:12.803Z,18.14
2018-05-18T14:57:41.015Z,18.10
2018-05-18T15:00:09.145Z,17.96
2018-05-18T15:02:37.288Z,17.94
2018-05-18T15:05:05.413Z,18.00
2018-05-18T15:07:33.547Z,18.00
2018-05-18T15:10:01.714Z,17.75
2018-05-18T15:12:29.834Z,17.71
2018-05-18T15:14:57.979Z,17.81
2018-05-18T15:17:27.195Z,17.81
2018-05-18T15:19:55.360Z,17.83
2018-05-18T15:22:26.810Z,17.96
2018-05-18T15:24:58.778Z,17.96
2018-05-18T15:27:26.799Z,17.86
2018-05-18T15:29:55.054Z,17.86
2018-05-18T15:32:23.190Z,17.84
2018-05-18T15:34:51.493Z,17.80
2018-05-18T15:37:19.732Z,17.91
2018-05-18T15:39:47.820Z,17.93
2018-05-18T15:42:15.944Z,17.77
2018-05-18T15:44:44.047Z,17.77
2018-05-18T15:47:12.237Z,17.73
2018-05-18T15:49:40.341Z,17.64
2018-05-18T15:52:08.451Z,17.70
2018-05-18T15:54:36.584Z,17.61
2018-05-18T15:57:04.724Z,17.62
2018-05-18T15:59:32.858Z,17.57
2018-05-18T16:02:01.027Z,17.64
2018-05-18T16:04:29.145Z,17.64
2018-05-18T16:06:57.282Z,17.62
2018-05-18T16:09:25.469Z,17.75
2018-05-18T16:11:53.670Z,17.72
2018-05-18T16:14:22.070Z,17.78
2018-05-18T16:16:50.215Z,17.79
2018-05-18T16:19:18.333Z,17.61
2018-05-18T16:21:46.464Z,17.61
2018-05-18T16:24:15.628Z,17.64
2018-05-18T16:26:43.742Z,17.96
2018-05-18T16:29:11.888Z,17.85
2018-05-18T16:31:40.030Z,17.99
2018-05-18T16:34:08.148Z,17.84
2018-05-18T16:36:36.254Z,17.43
2018-05-18T16:39:04.394Z,17.45
2018-05-18T16:41:36.283Z,17.37
2018-05-18T16:44:04.419Z,17.39
2018-05-18T16:46:32.544Z,17.26
2018-05-18T16:49:00.669Z,17.41
2018-05-18T16:51:28.794Z,17.44
2018-05-18T16:53:56.952Z,17.36
2018-05-18T16:56:25.088Z,17.50
2018-05-18T16:58:53.222Z,17.41
2018-05-18T17:01:21.356Z,17.41
2018-05-18T17:03:49.491Z,17.44
2018-05-18T17:06:17.623Z,17.47
2018-05-18T17:08:45.743Z,17.32
2018-05-18T17:11:14.078Z,17.33
2018-05-18T17:13:42.211Z,17.45
2018-05-18T17:16:10.354Z,17.61
2018-05-18T17:18:38.488Z,17.44
2018-05-18T17:21:06.631Z,17.40
2018-05-18T17:23:34.996Z,17.31
2018-05-18T17:26:03.113Z,17.33
2018-05-18T17:28:31.235Z,17.46
2018-05-18T17:30:59.374Z,17.55
2018-05-18T17:33:27.503Z,17.56
2018-05-18T17:35:55.643Z,17.50
2018-05-18T17:38:23.777Z,17.30
2018-05-18T17:40:51.893Z,17.29
2018-05-18T17:43:20.009Z,17.30
2018-05-18T17:45:48.145Z,17.34
2018-05-18T17:48:18.163Z,17.28
2018-05-18T17:50:46.316Z,16.90
2018-05-18T17:53:14.453Z,16.97
2018-05-18T17:55:42.592Z,16.96
2018-05-18T17:58:10.714Z,17.10
2018-05-18T18:00:38.871Z,17.15
2018-05-18T18:03:07.004Z,17.11
2018-05-18T18:05:35.134Z,17.15
2018-05-18T18:08:03.265Z,17.17
2018-05-18T18:10:31.394Z,17.09
2018-05-18T18:12:59.532Z,17.09
2018-05-18T18:15:27.646Z,17.04
2018-05-18T18:17:55.778Z,16.85
2018-05-18T18:20:23.875Z,16.69
2018-05-18T18:22:52.004Z,16.76
2018-05-18T18:25:20.129Z,16.85
2018-05-18T18:27:48.272Z,16.84
2018-05-18T18:30:16.405Z,16.74
2018-05-18T18:32:44.526Z,16.72
2018-05-18T18:35:12.664Z,16.68
2018-05-18T18:37:40.779Z,16.71
2018-05-18T18:40:08.890Z,16.77
2018-05-18T18:42:37.024Z,16.75
2018-05-18T18:45:05.153Z,16.68
2018-05-18T18:47:33.400Z,16.76
2018-05-18T18:50:01.531Z,16.55
2018-05-18T18:52:29.653Z,16.49
2018-05-18T18:54:57.760Z,16.60
2018-05-18T18:57:25.905Z,16.62
2018-05-18T18:59:54.047Z,16.47
2018-05-18T19:02:22.178Z,16.51
2018-05-18T19:04:50.298Z,16.53
2018-05-18T19:07:18.588Z,16.58
2018-05-18T19:09:46.724Z,16.41
2018-05-18T19:12:14.827Z,16.25
2018-05-18T19:14:42.952Z,16.32
2018-05-18T19:17:11.078Z,16.35
2018-05-18T19:19:39.194Z,16.33
2018-05-18T19:22:07.333Z,16.07
2018-05-18T19:24:35.457Z,15.88
2018-05-18T19:27:03.605Z,16.10
2018-05-18T19:29:31.719Z,16.17
2018-05-18T19:31:59.860Z,16.01
2018-05-18T19:34:27.991Z,15.91
2018-05-18T19:36:56.298Z,15.92
2018-05-18T19:39:24.419Z,15.89
2018-05-18T19:41:52.976Z,15.88
2018-05-18T19:44:22.275Z,15.93
2018-05-18T19:46:50.413Z,15.84
2018-05-18T19:49:18.532Z,16.21
2018-05-18T19:51:47.148Z,16.10
2018-05-18T19:54:15.284Z,16.01
2018-05-18T19:56:43.427Z,16.04
2018-05-18T19:59:11.567Z,15.99
2018-05-18T20:01:39.676Z,15.86
2018-05-18T20:04:07.827Z,15.70
2018-05-18T20:06:35.948Z,15.68
2018-05-18T20:09:04.071Z,15.57
2018-05-18T20:11:32.305Z,15.48
2018-05-18T20:14:00.473Z,15.46
2018-05-18T20:16:28.612Z,15.52
2018-05-18T20:18:56.707Z,15.50
2018-05-18T20:21:24.842Z,15.43
2018-05-18T20:23:52.975Z,15.39
2018-05-18T20:26:21.115Z,15.22
2018-05-18T20:28:49.254Z,15.08
2018-05-18T20:31:17.389Z,15.09
2018-05-18T20:33:45.520Z,15.09
2018-05-18T20:36:13.638Z,15.17
2018-05-18T20:38:41.787Z,15.23
2018-05-18T20:41:09.921Z,15.21
2018-05-18T20:43:38.062Z,15.21
2018-05-18T20:46:06.183Z,15.20
2018-05-18T20:48:34.302Z,15.17
2018-05-18T20:51:02.723Z,15.16
2018-05-18T20:53:30.870Z,14.98
2018-05-18T20:55:58.988Z,14.94
2018-05-18T20:58:27.209Z,14.83
2018-05-18T21:00:55.236Z,14.65
2018-05-18T21:03:23.381Z,14.65
2018-05-18T21:05:51.507Z,14.69
2018-05-18T21:08:19.726Z,14.61
2018-05-18T21:10:47.824Z,14.55
2018-05-18T21:13:16.045Z,14.51
2018-05-18T21:15:44.178Z,14.65
2018-05-18T21:18:12.293Z,14.56
2018-05-18T21:20:40.460Z,14.42
2018-05-18T21:23:08.562Z,14.18
2018-05-18T21:25:36.725Z,14.23
2018-05-18T21:28:04.871Z,14.45
2018-05-18T21:30:33.059Z,14.21
2018-05-18T21:33:01.113Z,14.07
2018-05-18T21:35:29.253Z,13.91
2018-05-18T21:37:57.355Z,14.13
2018-05-18T21:40:25.480Z,14.10
2018-05-18T21:42:53.623Z,13.93
2018-05-18T21:45:21.733Z,14.02
2018-05-18T21:47:49.862Z,13.97
2018-05-18T21:50:18.020Z,13.84
2018-05-18T21:52:46.155Z,14.04
2018-05-18T21:55:14.301Z,14.03
2018-05-18T21:57:42.541Z,13.89
2018-05-18T22:00:10.647Z,13.71
2018-05-18T22:02:38.750Z,13.72
2018-05-18T22:05:06.884Z,13.78
2018-05-18T22:07:35.017Z,13.81
2018-05-18T22:10:03.118Z,13.66
2018-05-18T22:12:31.258Z,13.86
2018-05-18T22:14:59.385Z,13.84
2018-05-18T22:17:27.513Z,13.76
2018-05-18T22:19:55.645Z,13.74
2018-05-18T22:22:23.797Z,13.72
2018-05-18T22:24:51.919Z,13.78
2018-05-18T22:27:20.038Z,13.65
2018-05-18T22:29:48.219Z,13.58
2018-05-18T22:32:16.376Z,13.74
2018-05-18T22:34:44.491Z,13.68
2018-05-18T22:37:12.614Z,13.74
2018-05-18T22:39:40.741Z,13.73
2018-05-18T22:42:08.859Z,13.66
2018-05-18T22:44:37.003Z,13.51
2018-05-18T22:47:05.129Z,13.53
2018-05-18T22:49:33.247Z,13.39
2018-05-18T22:52:01.381Z,13.36
2018-05-18T22:54:29.520Z,13.36
2018-05-18T22:56:57.638Z,13.34
2018-05-18T22:59:25.890Z,13.17
2018-05-18T23:01:54.039Z,13.14
2018-05-18T23:04:22.191Z,13.14
2018-05-18T23:06:50.302Z,13.18
2018-05-18T23:09:18.431Z,13.17
2018-05-18T23:11:46.815Z,13.19
2018-05-18T23:14:14.936Z,13.10
2018-05-18T23:16:43.061Z,13.03
2018-05-18T23:19:11.202Z,13.05
2018-05-18T23:21:39.319Z,12.88
2018-05-18T23:24:07.446Z,13.01
2018-05-18T23:26:35.592Z,13.06
2018-05-18T23:29:03.719Z,12.91
2018-05-18T23:31:31.849Z,12.87
2018-05-18T23:34:00.195Z,12.93
2018-05-18T23:36:28.333Z,12.91
2018-05-18T23:38:56.451Z,12.69
2018-05-18T23:41:24.603Z,12.74
2018-05-18T23:43:52.712Z,12.73
2018-05-18T23:46:20.833Z,12.61
2018-05-18T23:48:48.955Z,12.62
2018-05-18T23:51:17.058Z,12.70
2018-05-18T23:53:45.166Z,12.62
2018-05-18T23:56:13.339Z,12.56
2018-05-18T23:58:41.457Z,12.51
